Darbhanga Airport

Jump to: basic info | weather | runways | comments

Related pages: nearby airports | nearby navaids | notams | map

Basic information (top)

Codes: VE89
Location: lon 26.192801, lat 85.916901, elev 156 ft / 48 m msl
Status: small_airport

Weather (top)

Current conditions for Lok Nayak Jayaprakash Airport 58nm (107km) SW (rec'd 2014/08/30 09:50Z):

VEPT 300950Z 05010KT 6000 FEW020 SCT025 FEW030CB 35/27 Q1000 NOSIG

Airport forecast for Lok Nayak Jayaprakash Airport 58nm (107km) SW (rec'd 2014/08/28 12:12Z):

TAF VEPT 280900Z 2812/2918 12008KT 4000 HZ SCT020 SCT025 
      BECMG 2818/2820 3000 RA/-TSRA SCT018 FEW030CB BKN090 
      BECMG 2908/2910 5000 HZ SCT018 SCT025 
      BECMG 2914/2916 3000 HZ/-RA SCT018 SCT025 BKN090

Runways (top)

10/28: 9,000 x 150 ft (2,743 x 46 m) — paved — not lighted

Latest comments (top)

START DARBHANGA AIR PORT: I REQUESTE TO CENTRAL AND BIHAR ... [read]

Please apeel to start the airport: Dear Kindly Request PM TO Start The ... [read]

airline service: Please please start airline services ... [read]

pls: pls do start darbhanga airport [read]

flights to darbhanga: it will be honour to open darbhanga ... [read]

See all 21 comments for Darbhanga Airport

More... (top)

See also NOTAMs and nearby airports and navaids, or visit the Darbhanga Airport page at the main OurAirports website..